createdAt,value
2023-03-26T00:00:25.580Z,100421.94
2023-03-26T00:05:27.415Z,100421.94
2023-03-26T00:10:29.095Z,100428.28
2023-03-26T00:15:31.454Z,100431.09
2023-03-26T00:20:33.150Z,100445.22
2023-03-26T00:25:41.361Z,100441.88
2023-03-26T00:30:45.978Z,100445.38
2023-03-26T00:35:55.696Z,100441.88
2023-03-26T00:41:05.968Z,100443.56
2023-03-26T00:46:07.746Z,100445.22
2023-03-26T00:51:16.290Z,100451.69
2023-03-26T00:56:20.762Z,100455.16
2023-03-26T01:01:28.356Z,100450.34
2023-03-26T01:06:41.476Z,100444.88
2023-03-26T01:11:47.509Z,100454.66
2023-03-26T01:17:03.601Z,100460.16
2023-03-26T01:22:09.630Z,100457.63
2023-03-26T01:27:29.487Z,100461.66
2023-03-26T01:32:48.795Z,100462.28
2023-03-26T01:37:59.083Z,100471.22
2023-03-26T01:43:06.435Z,100466.22
2023-03-26T01:48:08.622Z,100476.31
2023-03-26T01:53:13.700Z,100479.31
2023-03-26T01:58:35.694Z,100465.50
2023-03-26T02:03:45.369Z,100477.28
2023-03-26T02:08:58.278Z,100475.47
2023-03-26T02:14:00.023Z,100466.19
2023-03-26T02:19:15.337Z,100463.53
2023-03-26T02:24:20.923Z,100460.03
2023-03-26T02:29:26.929Z,100469.28
2023-03-26T02:34:29.183Z,100462.00
2023-03-26T02:39:33.466Z,100455.03
2023-03-26T02:44:42.657Z,100452.72
2023-03-26T02:49:53.390Z,100449.88
2023-03-26T02:55:12.020Z,100450.72
2023-03-26T03:00:18.207Z,100461.19
2023-03-26T03:05:20.267Z,100466.53
2023-03-26T03:10:32.710Z,100456.91
2023-03-26T03:15:41.679Z,100449.44
2023-03-26T03:20:44.544Z,100449.91
2023-03-26T03:25:46.274Z,100449.09
2023-03-26T03:30:48.992Z,100451.06
2023-03-26T03:35:59.393Z,100455.19
2023-03-26T03:41:02.334Z,100456.69
2023-03-26T03:46:09.483Z,100445.41
2023-03-26T03:51:19.936Z,100452.53
2023-03-26T03:56:29.181Z,100458.16
2023-03-26T04:01:53.731Z,100454.16
2023-03-26T04:07:06.744Z,100449.19
2023-03-26T04:12:26.364Z,100450.00
2023-03-26T04:17:42.497Z,100447.34
2023-03-26T04:22:46.671Z,100444.00
2023-03-26T04:27:50.681Z,100447.69
2023-03-26T04:33:15.540Z,100457.13
2023-03-26T04:38:18.731Z,100447.31
2023-03-26T04:43:23.807Z,100457.44
2023-03-26T04:48:46.898Z,100464.88
2023-03-26T04:53:54.898Z,100465.19
2023-03-26T04:59:05.056Z,100464.66
2023-03-26T05:04:15.148Z,100460.81
2023-03-26T05:09:17.336Z,100458.81
2023-03-26T05:14:51.388Z,100465.72
2023-03-26T05:20:02.402Z,100462.72
2023-03-26T05:25:05.223Z,100469.00
2023-03-26T05:30:16.820Z,100469.84
2023-03-26T05:35:21.795Z,100480.75
2023-03-26T05:40:23.794Z,100478.28
2023-03-26T05:45:30.290Z,100475.09
2023-03-26T05:50:35.869Z,100481.28
2023-03-26T05:55:37.763Z,100478.44
2023-03-26T06:01:05.434Z,100476.31
2023-03-26T06:06:27.815Z,100482.50
2023-03-26T06:11:37.110Z,100469.94
2023-03-26T06:16:40.161Z,100479.09
2023-03-26T06:21:57.851Z,100470.03
2023-03-26T06:27:13.775Z,100471.03
2023-03-26T06:32:52.623Z,100475.88
2023-03-26T06:37:59.432Z,100480.22
2023-03-26T06:43:10.269Z,100485.06
2023-03-26T06:48:24.263Z,100487.72
2023-03-26T06:53:48.543Z,100489.59
2023-03-26T06:59:15.918Z,100487.63
2023-03-26T07:04:36.437Z,100483.06
2023-03-26T07:10:00.050Z,100491.03
2023-03-26T07:15:40.307Z,100487.91
2023-03-26T07:21:20.003Z,100486.59
2023-03-26T07:26:27.116Z,100476.78
2023-03-26T07:32:16.153Z,100473.97
2023-03-26T07:37:44.763Z,100480.75
2023-03-26T07:43:17.172Z,100472.78
2023-03-26T07:48:47.881Z,100472.63
2023-03-26T07:54:00.541Z,100477.56
2023-03-26T07:59:17.975Z,100475.06
2023-03-26T08:04:45.839Z,100471.53
2023-03-26T08:10:35.937Z,100476.31
2023-03-26T08:15:56.410Z,100476.25
2023-03-26T08:21:12.553Z,100474.47
2023-03-26T08:26:40.677Z,100481.41
2023-03-26T08:31:50.738Z,100484.75
2023-03-26T08:36:56.165Z,100484.59
2023-03-26T08:42:23.012Z,100484.03
2023-03-26T08:47:31.013Z,100492.28
2023-03-26T08:53:12.105Z,100497.94
2023-03-26T08:58:42.336Z,100498.97
2023-03-26T09:04:12.943Z,100499.78
2023-03-26T09:09:39.741Z,100497.16
2023-03-26T09:14:53.400Z,100497.41
2023-03-26T09:20:02.009Z,100497.13
2023-03-26T09:25:59.903Z,100502.63
2023-03-26T09:31:39.970Z,100509.84
2023-03-26T09:37:02.787Z,100513.94
2023-03-26T09:42:14.001Z,100511.00
2023-03-26T09:47:36.912Z,100508.59
2023-03-26T09:52:41.457Z,100507.66
2023-03-26T09:57:47.118Z,100508.56
2023-03-26T10:03:31.826Z,100498.63
2023-03-26T10:08:42.265Z,100510.34
2023-03-26T10:14:02.836Z,100515.94
2023-03-26T10:19:34.230Z,100500.59
2023-03-26T10:25:20.801Z,100517.38
2023-03-26T10:30:38.908Z,100519.28
2023-03-26T10:36:02.993Z,100510.84
2023-03-26T10:41:19.356Z,100520.97
2023-03-26T10:46:22.017Z,100512.72
2023-03-26T10:51:29.958Z,100531.13
2023-03-26T10:56:41.816Z,100522.59
2023-03-26T11:01:55.299Z,100524.53
2023-03-26T11:07:12.257Z,100523.59
2023-03-26T11:12:27.034Z,100533.19
2023-03-26T11:17:53.461Z,100541.13
2023-03-26T11:23:29.521Z,100539.84
2023-03-26T11:29:03.124Z,100541.91
2023-03-26T11:34:12.854Z,100547.78
2023-03-26T11:39:30.412Z,100546.63
2023-03-26T11:44:39.449Z,100548.13
2023-03-26T11:49:45.809Z,100551.56
2023-03-26T11:54:51.499Z,100552.25
2023-03-26T11:59:58.224Z,100553.44
2023-03-26T12:05:12.670Z,100553.53
2023-03-26T12:10:33.210Z,100559.28
2023-03-26T12:15:44.133Z,100563.00
2023-03-26T12:20:46.963Z,100569.25
2023-03-26T12:26:16.317Z,100568.97
2023-03-26T12:31:27.295Z,100577.69
2023-03-26T12:36:33.873Z,100570.72
2023-03-26T12:44:42.198Z,100588.69
2023-03-26T12:47:58.376Z,100581.78
2023-03-26T12:53:12.822Z,100592.59
2023-03-26T12:58:38.815Z,100598.41
2023-03-26T13:03:50.572Z,100588.38
2023-03-26T13:09:19.440Z,100589.22
2023-03-26T13:14:40.142Z,100601.38
2023-03-26T13:20:07.458Z,100601.88
2023-03-26T13:25:28.111Z,100594.25
2023-03-26T13:30:48.653Z,100590.72
2023-03-26T13:36:22.334Z,100592.38
2023-03-26T13:41:32.407Z,100589.94
2023-03-26T13:46:42.881Z,100586.00
2023-03-26T13:52:01.049Z,100586.81
2023-03-26T13:57:12.950Z,100587.28
2023-03-26T14:02:36.634Z,100590.69
2023-03-26T14:07:59.246Z,100588.56
2023-03-26T14:13:14.530Z,100598.63
2023-03-26T14:18:40.218Z,100597.81
2023-03-26T14:24:27.299Z,100613.00
2023-03-26T14:30:14.788Z,100607.34
2023-03-26T14:35:43.201Z,100607.19
2023-03-26T14:40:52.641Z,100617.63
2023-03-26T14:46:04.754Z,100614.38
2023-03-26T14:51:43.925Z,100623.59
2023-03-26T14:57:21.746Z,100633.53
2023-03-26T15:03:01.713Z,100633.69
2023-03-26T15:08:13.321Z,100627.66
2023-03-26T15:13:41.276Z,100638.75
2023-03-26T15:18:50.099Z,100636.91
2023-03-26T15:24:28.319Z,100647.47
2023-03-26T15:29:49.511Z,100660.84
2023-03-26T15:35:06.208Z,100659.78
2023-03-26T15:40:29.025Z,100655.53
2023-03-26T15:45:31.744Z,100659.75
2023-03-26T15:51:12.509Z,100674.44
2023-03-26T15:56:33.610Z,100684.00
2023-03-26T16:01:36.735Z,100699.16
2023-03-26T16:07:04.197Z,100696.84
2023-03-26T16:12:14.615Z,100699.22
2023-03-26T16:17:34.669Z,100698.09
2023-03-26T16:23:01.391Z,100709.44
2023-03-26T16:28:24.873Z,100705.03
2023-03-26T16:33:39.083Z,100719.31
2023-03-26T16:38:54.162Z,100726.28
2023-03-26T16:44:12.236Z,100734.69
2023-03-26T16:49:29.061Z,100736.09
2023-03-26T16:54:46.086Z,100736.47
2023-03-26T17:00:07.546Z,100742.09
2023-03-26T17:05:24.585Z,100758.47
2023-03-26T17:10:44.026Z,100761.50
2023-03-26T17:16:00.098Z,100770.03
2023-03-26T17:21:18.550Z,100766.84
2023-03-26T17:26:31.954Z,100784.44
2023-03-26T17:31:46.269Z,100792.69
2023-03-26T17:36:56.307Z,100785.22
2023-03-26T17:42:23.130Z,100798.69
2023-03-26T17:47:40.012Z,100816.16
2023-03-26T17:52:41.875Z,100812.75
2023-03-26T17:57:52.669Z,100821.69
2023-03-26T18:03:01.376Z,100830.28
2023-03-26T18:08:15.727Z,100830.06
2023-03-26T18:14:08.240Z,100850.34
2023-03-26T18:19:23.048Z,100859.50
2023-03-26T18:24:32.428Z,100866.41
2023-03-26T18:29:37.025Z,100863.66
2023-03-26T18:34:48.568Z,100881.75
2023-03-26T18:40:10.675Z,100891.13
2023-03-26T18:45:24.491Z,100893.00
2023-03-26T18:50:48.086Z,100903.63
2023-03-26T18:55:52.695Z,100896.09
2023-03-26T19:01:00.161Z,100907.03
2023-03-26T19:06:10.372Z,100902.94
2023-03-26T19:11:14.859Z,100911.75
2023-03-26T19:16:28.519Z,100912.34
2023-03-26T19:21:30.423Z,100922.84
2023-03-26T19:26:33.345Z,100915.16
2023-03-26T19:31:43.733Z,100920.56
2023-03-26T19:37:06.132Z,100929.00
2023-03-26T19:42:24.640Z,100931.97
2023-03-26T19:47:50.148Z,100929.19
2023-03-26T19:53:29.309Z,100935.19
2023-03-26T19:58:37.180Z,100953.31
2023-03-26T20:03:49.748Z,100938.06
2023-03-26T20:09:06.557Z,100944.13
2023-03-26T20:14:28.867Z,100944.41
2023-03-26T20:19:49.971Z,100957.94
2023-03-26T20:24:52.770Z,100967.44
2023-03-26T20:29:55.838Z,100963.09
2023-03-26T20:34:58.848Z,100957.94
2023-03-26T20:40:01.038Z,100978.72
2023-03-26T20:45:12.498Z,100975.66
2023-03-26T20:50:18.178Z,100985.28
2023-03-26T20:55:24.925Z,100989.59
2023-03-26T21:00:34.882Z,101002.81
2023-03-26T21:05:36.808Z,101013.53
2023-03-26T21:10:40.934Z,101023.19
2023-03-26T21:15:45.685Z,101021.34
2023-03-26T21:21:07.679Z,101028.72
2023-03-26T21:26:25.305Z,101026.06
2023-03-26T21:31:31.341Z,101038.34
2023-03-26T21:36:33.403Z,101044.59
2023-03-26T21:41:46.927Z,101054.78
2023-03-26T21:46:51.582Z,101056.66
2023-03-26T21:51:56.377Z,101064.06
2023-03-26T21:57:17.305Z,101073.09
2023-03-26T22:02:46.824Z,101080.91
2023-03-26T22:07:55.937Z,101089.84
2023-03-26T22:12:58.689Z,101096.44
2023-03-26T22:18:04.138Z,101095.25
2023-03-26T22:23:08.152Z,101106.84
2023-03-26T22:28:15.428Z,101103.19
2023-03-26T22:33:22.334Z,101115.41
2023-03-26T22:38:32.024Z,101112.56
2023-03-26T22:43:37.176Z,101119.75
2023-03-26T22:48:41.179Z,101123.88
2023-03-26T22:53:45.456Z,101141.94
2023-03-26T22:58:48.024Z,101141.59
2023-03-26T23:03:49.845Z,101153.72
2023-03-26T23:08:57.065Z,101159.88
2023-03-26T23:14:01.299Z,101154.63
2023-03-26T23:19:03.096Z,101169.47
2023-03-26T23:24:05.100Z,101172.97
2023-03-26T23:29:09.550Z,101172.31
2023-03-26T23:34:17.045Z,101178.97
2023-03-26T23:39:19.425Z,101185.56
2023-03-26T23:44:25.946Z,101187.53
2023-03-26T23:49:29.830Z,101185.50
2023-03-26T23:54:35.299Z,101190.44
2023-03-26T23:59:37.012Z,101209.06
